sensor_id;sensor_type;location;lat;lon;timestamp;temperature;humidity
46562;DHT22;32289;42.688;23.330;2023-04-03T00:00:50;7.80;99.70
46562;DHT22;32289;42.688;23.330;2023-04-03T00:04:31;7.70;99.60
46562;DHT22;32289;42.688;23.330;2023-04-03T00:08:12;7.70;99.90
46562;DHT22;32289;42.688;23.330;2023-04-03T00:11:52;7.40;99.90
46562;DHT22;32289;42.688;23.330;2023-04-03T00:15:34;7.30;99.90
46562;DHT22;32289;42.688;23.330;2023-04-03T00:19:15;7.40;99.90
46562;DHT22;32289;42.688;23.330;2023-04-03T00:22:56;7.20;99.90
46562;DHT22;32289;42.688;23.330;2023-04-03T00:26:37;7.30;99.90
46562;DHT22;32289;42.688;23.330;2023-04-03T00:30:19;7.40;99.90
46562;DHT22;32289;42.688;23.330;2023-04-03T00:34:00;7.40;99.90
46562;DHT22;32289;42.688;23.330;2023-04-03T00:37:42;7.40;99.90
46562;DHT22;32289;42.688;23.330;2023-04-03T00:41:22;7.40;99.90
46562;DHT22;32289;42.688;23.330;2023-04-03T00:48:46;7.30;99.90
46562;DHT22;32289;42.688;23.330;2023-04-03T00:52:29;7.20;99.90
46562;DHT22;32289;42.688;23.330;2023-04-03T00:56:13;7.20;99.90
46562;DHT22;32289;42.688;23.330;2023-04-03T01:00:01;7.00;99.90
46562;DHT22;32289;42.688;23.330;2023-04-03T01:03:43;7.00;99.90
46562;DHT22;32289;42.688;23.330;2023-04-03T01:07:28;7.00;99.90
46562;DHT22;32289;42.688;23.330;2023-04-03T01:11:09;7.00;99.90
46562;DHT22;32289;42.688;23.330;2023-04-03T01:14:53;7.00;99.90
46562;DHT22;32289;42.688;23.330;2023-04-03T01:18:38;6.90;99.90
46562;DHT22;32289;42.688;23.330;2023-04-03T01:22:25;7.00;99.90
46562;DHT22;32289;42.688;23.330;2023-04-03T01:26:09;7.00;99.90
46562;DHT22;32289;42.688;23.330;2023-04-03T01:29:52;6.90;99.90
46562;DHT22;32289;42.688;23.330;2023-04-03T01:33:33;6.80;99.90
46562;DHT22;32289;42.688;23.330;2023-04-03T01:37:13;6.60;99.90
46562;DHT22;32289;42.688;23.330;2023-04-03T01:40:57;6.60;99.90
46562;DHT22;32289;42.688;23.330;2023-04-03T01:44:37;6.80;99.90
46562;DHT22;32289;42.688;23.330;2023-04-03T01:48:18;6.80;99.90
46562;DHT22;32289;42.688;23.330;2023-04-03T01:51:59;6.80;99.90
46562;DHT22;32289;42.688;23.330;2023-04-03T01:55:40;6.80;99.90
46562;DHT22;32289;42.688;23.330;2023-04-03T01:59:20;6.90;99.90
46562;DHT22;32289;42.688;23.330;2023-04-03T02:03:02;7.00;99.90
46562;DHT22;32289;42.688;23.330;2023-04-03T02:06:43;6.90;99.90
46562;DHT22;32289;42.688;23.330;2023-04-03T02:10:23;6.70;99.90
46562;DHT22;32289;42.688;23.330;2023-04-03T02:14:04;6.50;99.90
46562;DHT22;32289;42.688;23.330;2023-04-03T02:17:45;6.30;99.90
46562;DHT22;32289;42.688;23.330;2023-04-03T02:21:26;6.30;99.90
46562;DHT22;32289;42.688;23.330;2023-04-03T02:25:06;6.20;99.90
46562;DHT22;32289;42.688;23.330;2023-04-03T02:28:47;6.10;99.90
46562;DHT22;32289;42.688;23.330;2023-04-03T02:32:28;5.90;99.90
46562;DHT22;32289;42.688;23.330;2023-04-03T02:36:09;5.70;99.90
46562;DHT22;32289;42.688;23.330;2023-04-03T02:39:51;5.60;99.90
46562;DHT22;32289;42.688;23.330;2023-04-03T02:43:32;5.90;99.90
46562;DHT22;32289;42.688;23.330;2023-04-03T02:47:13;5.90;99.90
46562;DHT22;32289;42.688;23.330;2023-04-03T02:50:54;5.90;99.90
46562;DHT22;32289;42.688;23.330;2023-04-03T02:54:35;5.90;99.90
46562;DHT22;32289;42.688;23.330;2023-04-03T02:58:15;5.90;99.90
46562;DHT22;32289;42.688;23.330;2023-04-03T03:01:56;5.90;99.90
46562;DHT22;32289;42.688;23.330;2023-04-03T03:05:37;5.80;99.90
46562;DHT22;32289;42.688;23.330;2023-04-03T03:09:18;5.70;99.90
46562;DHT22;32289;42.688;23.330;2023-04-03T03:12:58;5.80;99.90
46562;DHT22;32289;42.688;23.330;2023-04-03T03:16:39;5.50;99.90
46562;DHT22;32289;42.688;23.330;2023-04-03T03:20:20;5.30;99.90
46562;DHT22;32289;42.688;23.330;2023-04-03T03:24:01;5.30;99.90
46562;DHT22;32289;42.688;23.330;2023-04-03T03:27:42;5.30;99.90
46562;DHT22;32289;42.688;23.330;2023-04-03T03:31:23;5.50;99.90
46562;DHT22;32289;42.688;23.330;2023-04-03T03:35:03;5.50;99.90
46562;DHT22;32289;42.688;23.330;2023-04-03T03:38:44;5.50;99.90
46562;DHT22;32289;42.688;23.330;2023-04-03T03:42:25;5.20;99.90
46562;DHT22;32289;42.688;23.330;2023-04-03T03:46:06;5.70;99.90
46562;DHT22;32289;42.688;23.330;2023-04-03T03:49:47;5.50;99.90
46562;DHT22;32289;42.688;23.330;2023-04-03T03:53:27;5.50;99.90
46562;DHT22;32289;42.688;23.330;2023-04-03T03:57:08;5.30;99.90
46562;DHT22;32289;42.688;23.330;2023-04-03T04:00:49;5.20;99.90
46562;DHT22;32289;42.688;23.330;2023-04-03T04:04:29;5.40;99.90
46562;DHT22;32289;42.688;23.330;2023-04-03T04:08:10;5.50;99.90
46562;DHT22;32289;42.688;23.330;2023-04-03T04:11:51;5.60;99.90
46562;DHT22;32289;42.688;23.330;2023-04-03T04:15:31;5.60;99.90
46562;DHT22;32289;42.688;23.330;2023-04-03T04:19:12;5.70;99.90
46562;DHT22;32289;42.688;23.330;2023-04-03T04:22:53;5.70;99.90
46562;DHT22;32289;42.688;23.330;2023-04-03T04:26:34;5.80;99.90
46562;DHT22;32289;42.688;23.330;2023-04-03T04:30:16;7.00;99.90
46562;DHT22;32289;42.688;23.330;2023-04-03T04:33:56;6.10;99.90
46562;DHT22;32289;42.688;23.330;2023-04-03T04:37:37;5.90;99.90
46562;DHT22;32289;42.688;23.330;2023-04-03T04:41:19;5.90;99.90
46562;DHT22;32289;42.688;23.330;2023-04-03T04:45:02;6.10;99.90
46562;DHT22;32289;42.688;23.330;2023-04-03T04:48:43;6.50;99.90
46562;DHT22;32289;42.688;23.330;2023-04-03T04:52:24;6.40;99.90
46562;DHT22;32289;42.688;23.330;2023-04-03T04:56:05;6.40;99.90
46562;DHT22;32289;42.688;23.330;2023-04-03T04:59:46;6.00;99.90
46562;DHT22;32289;42.688;23.330;2023-04-03T05:03:27;6.10;99.90
46562;DHT22;32289;42.688;23.330;2023-04-03T05:07:07;6.10;99.90
46562;DHT22;32289;42.688;23.330;2023-04-03T05:10:48;6.30;99.90
46562;DHT22;32289;42.688;23.330;2023-04-03T05:14:29;6.40;99.90
46562;DHT22;32289;42.688;23.330;2023-04-03T05:18:10;6.40;99.90
46562;DHT22;32289;42.688;23.330;2023-04-03T05:21:51;6.20;99.90
46562;DHT22;32289;42.688;23.330;2023-04-03T05:25:32;6.20;99.90
46562;DHT22;32289;42.688;23.330;2023-04-03T05:29:12;6.20;99.90
46562;DHT22;32289;42.688;23.330;2023-04-03T05:32:53;6.20;99.90
46562;DHT22;32289;42.688;23.330;2023-04-03T05:36:34;6.50;99.90
46562;DHT22;32289;42.688;23.330;2023-04-03T05:40:14;6.90;99.90
46562;DHT22;32289;42.688;23.330;2023-04-03T05:43:55;6.90;99.90
46562;DHT22;32289;42.688;23.330;2023-04-03T05:47:36;7.00;99.90
46562;DHT22;32289;42.688;23.330;2023-04-03T05:51:24;7.20;99.90
46562;DHT22;32289;42.688;23.330;2023-04-03T05:55:08;7.20;99.90
46562;DHT22;32289;42.688;23.330;2023-04-03T05:58:49;7.10;99.90
46562;DHT22;32289;42.688;23.330;2023-04-03T06:02:30;7.10;99.90
46562;DHT22;32289;42.688;23.330;2023-04-03T06:06:13;7.20;99.90
46562;DHT22;32289;42.688;23.330;2023-04-03T06:09:56;7.20;99.90
46562;DHT22;32289;42.688;23.330;2023-04-03T06:13:37;7.30;99.90
46562;DHT22;32289;42.688;23.330;2023-04-03T06:17:18;7.30;99.90
46562;DHT22;32289;42.688;23.330;2023-04-03T06:20:59;7.60;99.90
46562;DHT22;32289;42.688;23.330;2023-04-03T06:24:41;7.90;99.90
46562;DHT22;32289;42.688;23.330;2023-04-03T06:28:22;8.00;99.90
46562;DHT22;32289;42.688;23.330;2023-04-03T06:32:03;7.90;99.90
46562;DHT22;32289;42.688;23.330;2023-04-03T06:35:43;8.60;99.90
46562;DHT22;32289;42.688;23.330;2023-04-03T06:39:24;8.80;99.90
46562;DHT22;32289;42.688;23.330;2023-04-03T06:43:05;8.50;99.90
46562;DHT22;32289;42.688;23.330;2023-04-03T06:46:45;8.40;99.90
46562;DHT22;32289;42.688;23.330;2023-04-03T06:50:26;7.90;99.90
46562;DHT22;32289;42.688;23.330;2023-04-03T06:54:07;7.70;99.90
46562;DHT22;32289;42.688;23.330;2023-04-03T06:57:48;8.10;99.90
46562;DHT22;32289;42.688;23.330;2023-04-03T07:01:29;8.10;99.90
46562;DHT22;32289;42.688;23.330;2023-04-03T07:05:10;8.20;99.90
46562;DHT22;32289;42.688;23.330;2023-04-03T07:08:51;9.60;99.90
46562;DHT22;32289;42.688;23.330;2023-04-03T07:12:32;10.30;99.90
46562;DHT22;32289;42.688;23.330;2023-04-03T07:16:12;9.70;99.90
46562;DHT22;32289;42.688;23.330;2023-04-03T07:19:53;10.60;99.90
46562;DHT22;32289;42.688;23.330;2023-04-03T07:23:34;11.10;94.80
46562;DHT22;32289;42.688;23.330;2023-04-03T07:27:15;10.70;94.60
46562;DHT22;32289;42.688;23.330;2023-04-03T07:31:06;10.00;95.00
46562;DHT22;32289;42.688;23.330;2023-04-03T07:34:48;11.40;94.00
46562;DHT22;32289;42.688;23.330;2023-04-03T07:38:29;11.30;91.10
46562;DHT22;32289;42.688;23.330;2023-04-03T07:42:10;11.30;91.40
46562;DHT22;32289;42.688;23.330;2023-04-03T07:45:51;10.90;91.30
46562;DHT22;32289;42.688;23.330;2023-04-03T07:49:31;10.80;91.60
46562;DHT22;32289;42.688;23.330;2023-04-03T07:53:13;10.80;91.40
46562;DHT22;32289;42.688;23.330;2023-04-03T07:56:54;11.00;91.50
46562;DHT22;32289;42.688;23.330;2023-04-03T08:00:35;10.50;92.10
46562;DHT22;32289;42.688;23.330;2023-04-03T08:04:15;10.30;92.60
46562;DHT22;32289;42.688;23.330;2023-04-03T08:07:56;10.40;92.70
46562;DHT22;32289;42.688;23.330;2023-04-03T08:11:39;10.70;92.30
46562;DHT22;32289;42.688;23.330;2023-04-03T08:15:20;11.50;91.90
46562;DHT22;32289;42.688;23.330;2023-04-03T08:19:00;10.90;91.20
46562;DHT22;32289;42.688;23.330;2023-04-03T08:22:41;11.00;91.00
46562;DHT22;32289;42.688;23.330;2023-04-03T08:26:22;11.40;92.90
46562;DHT22;32289;42.688;23.330;2023-04-03T08:30:03;10.60;91.60
46562;DHT22;32289;42.688;23.330;2023-04-03T08:33:45;10.70;91.70
46562;DHT22;32289;42.688;23.330;2023-04-03T08:37:26;10.70;92.10
46562;DHT22;32289;42.688;23.330;2023-04-03T08:48:46;11.20;91.70
46562;DHT22;32289;42.688;23.330;2023-04-03T08:52:41;11.50;90.60
46562;DHT22;32289;42.688;23.330;2023-04-03T08:56:26;11.70;90.20
46562;DHT22;32289;42.688;23.330;2023-04-03T09:00:17;11.70;89.80
46562;DHT22;32289;42.688;23.330;2023-04-03T09:04:01;11.60;89.60
46562;DHT22;32289;42.688;23.330;2023-04-03T09:15:36;12.20;84.70
46562;DHT22;32289;42.688;23.330;2023-04-03T09:23:30;12.20;85.40
46562;DHT22;32289;42.688;23.330;2023-04-03T09:27:12;12.30;85.60
46562;DHT22;32289;42.688;23.330;2023-04-03T09:30:53;12.10;85.00
46562;DHT22;32289;42.688;23.330;2023-04-03T09:34:37;12.40;85.30
46562;DHT22;32289;42.688;23.330;2023-04-03T09:38:20;12.40;84.60
46562;DHT22;32289;42.688;23.330;2023-04-03T09:42:11;12.60;83.20
46562;DHT22;32289;42.688;23.330;2023-04-03T09:46:17;12.80;82.20
46562;DHT22;32289;42.688;23.330;2023-04-03T09:53:55;12.90;82.40
46562;DHT22;32289;42.688;23.330;2023-04-03T09:57:36;13.10;81.90
46562;DHT22;32289;42.688;23.330;2023-04-03T10:01:32;12.50;82.30
46562;DHT22;32289;42.688;23.330;2023-04-03T10:05:28;12.20;84.00
46562;DHT22;32289;42.688;23.330;2023-04-03T10:09:26;12.10;84.20
46562;DHT22;32289;42.688;23.330;2023-04-03T10:13:19;11.90;85.90
46562;DHT22;32289;42.688;23.330;2023-04-03T10:20:48;12.10;86.00
46562;DHT22;32289;42.688;23.330;2023-04-03T10:24:36;12.00;85.30
46562;DHT22;32289;42.688;23.330;2023-04-03T10:36:45;12.10;86.10
46562;DHT22;32289;42.688;23.330;2023-04-03T10:52:07;12.00;86.20
46562;DHT22;32289;42.688;23.330;2023-04-03T11:00:07;12.00;84.20
46562;DHT22;32289;42.688;23.330;2023-04-03T11:03:57;11.90;85.40
46562;DHT22;32289;42.688;23.330;2023-04-03T11:07:48;12.10;84.70
46562;DHT22;32289;42.688;23.330;2023-04-03T11:11:33;11.80;85.70
46562;DHT22;32289;42.688;23.330;2023-04-03T11:15:18;11.80;88.60
46562;DHT22;32289;42.688;23.330;2023-04-03T11:19:03;11.70;92.70
46562;DHT22;32289;42.688;23.330;2023-04-03T11:22:50;11.70;91.20
46562;DHT22;32289;42.688;23.330;2023-04-03T11:26:36;11.70;93.00
46562;DHT22;32289;42.688;23.330;2023-04-03T11:34:34;11.30;97.40
46562;DHT22;32289;42.688;23.330;2023-04-03T11:38:27;10.60;99.90
46562;DHT22;32289;42.688;23.330;2023-04-03T11:42:36;10.60;99.90
46562;DHT22;32289;42.688;23.330;2023-04-03T11:46:18;10.60;99.90
46562;DHT22;32289;42.688;23.330;2023-04-03T11:50:04;10.80;99.90
46562;DHT22;32289;42.688;23.330;2023-04-03T11:53:45;10.50;99.90
46562;DHT22;32289;42.688;23.330;2023-04-03T12:01:46;10.60;99.90
46562;DHT22;32289;42.688;23.330;2023-04-03T12:05:29;10.30;99.90
46562;DHT22;32289;42.688;23.330;2023-04-03T12:09:31;10.40;99.90
46562;DHT22;32289;42.688;23.330;2023-04-03T12:13:16;10.30;99.90
46562;DHT22;32289;42.688;23.330;2023-04-03T12:16:57;10.10;99.90
46562;DHT22;32289;42.688;23.330;2023-04-03T12:24:30;9.60;99.90
46562;DHT22;32289;42.688;23.330;2023-04-03T12:28:11;9.30;99.90
46562;DHT22;32289;42.688;23.330;2023-04-03T12:32:37;8.60;99.90
46562;DHT22;32289;42.688;23.330;2023-04-03T12:36:54;8.60;99.90
46562;DHT22;32289;42.688;23.330;2023-04-03T12:48:17;8.70;99.90
46562;DHT22;32289;42.688;23.330;2023-04-03T12:52:04;8.60;99.90
46562;DHT22;32289;42.688;23.330;2023-04-03T12:55:46;8.30;99.90
46562;DHT22;32289;42.688;23.330;2023-04-03T12:59:27;8.40;99.90
46562;DHT22;32289;42.688;23.330;2023-04-03T13:03:22;8.30;99.90
46562;DHT22;32289;42.688;23.330;2023-04-03T13:07:04;8.20;99.90
46562;DHT22;32289;42.688;23.330;2023-04-03T13:11:09;7.90;99.90
46562;DHT22;32289;42.688;23.330;2023-04-03T13:14:54;8.00;99.90
46562;DHT22;32289;42.688;23.330;2023-04-03T13:18:35;7.80;99.90
46562;DHT22;32289;42.688;23.330;2023-04-03T13:22:35;7.80;99.90
46562;DHT22;32289;42.688;23.330;2023-04-03T13:26:21;7.80;99.90
46562;DHT22;32289;42.688;23.330;2023-04-03T13:30:04;7.70;99.90
46562;DHT22;32289;42.688;23.330;2023-04-03T13:34:10;7.80;99.90
46562;DHT22;32289;42.688;23.330;2023-04-03T13:37:58;7.70;99.90
46562;DHT22;32289;42.688;23.330;2023-04-03T13:41:42;7.70;99.90
46562;DHT22;32289;42.688;23.330;2023-04-03T13:45:26;7.50;99.90
46562;DHT22;32289;42.688;23.330;2023-04-03T13:49:35;8.10;99.90
46562;DHT22;32289;42.688;23.330;2023-04-03T13:53:16;11.20;99.90
46562;DHT22;32289;42.688;23.330;2023-04-03T13:56:59;10.70;99.90
46562;DHT22;32289;42.688;23.330;2023-04-03T14:00:50;10.60;99.90
46562;DHT22;32289;42.688;23.330;2023-04-03T14:04:44;10.90;99.90
46562;DHT22;32289;42.688;23.330;2023-04-03T14:08:25;11.30;99.90
46562;DHT22;32289;42.688;23.330;2023-04-03T14:12:14;11.60;99.90
46562;DHT22;32289;42.688;23.330;2023-04-03T14:15:55;11.90;99.90
46562;DHT22;32289;42.688;23.330;2023-04-03T14:19:36;12.20;99.90
46562;DHT22;32289;42.688;23.330;2023-04-03T14:23:17;12.40;99.90
46562;DHT22;32289;42.688;23.330;2023-04-03T14:26:58;12.60;99.90
46562;DHT22;32289;42.688;23.330;2023-04-03T14:30:39;12.70;99.90
46562;DHT22;32289;42.688;23.330;2023-04-03T14:34:20;12.60;99.90
46562;DHT22;32289;42.688;23.330;2023-04-03T14:38:01;12.90;99.90
46562;DHT22;32289;42.688;23.330;2023-04-03T14:41:42;13.00;99.90
46562;DHT22;32289;42.688;23.330;2023-04-03T14:45:24;13.00;99.90
46562;DHT22;32289;42.688;23.330;2023-04-03T14:49:14;12.90;99.90
46562;DHT22;32289;42.688;23.330;2023-04-03T14:52:57;12.90;99.90
46562;DHT22;32289;42.688;23.330;2023-04-03T14:56:38;12.90;99.90
46562;DHT22;32289;42.688;23.330;2023-04-03T15:00:21;12.60;99.90
46562;DHT22;32289;42.688;23.330;2023-04-03T15:04:04;12.30;99.90
46562;DHT22;32289;42.688;23.330;2023-04-03T15:08:03;12.10;99.90
46562;DHT22;32289;42.688;23.330;2023-04-03T15:11:45;11.90;99.90
46562;DHT22;32289;42.688;23.330;2023-04-03T15:15:29;11.70;99.90
46562;DHT22;32289;42.688;23.330;2023-04-03T15:19:10;11.70;99.90
46562;DHT22;32289;42.688;23.330;2023-04-03T15:22:51;11.60;99.90
46562;DHT22;32289;42.688;23.330;2023-04-03T15:26:33;11.50;99.90
46562;DHT22;32289;42.688;23.330;2023-04-03T15:30:16;11.30;99.90
46562;DHT22;32289;42.688;23.330;2023-04-03T15:33:57;11.30;99.90
46562;DHT22;32289;42.688;23.330;2023-04-03T15:37:37;11.30;99.90
46562;DHT22;32289;42.688;23.330;2023-04-03T15:41:18;11.20;99.90
46562;DHT22;32289;42.688;23.330;2023-04-03T15:44:59;11.20;99.90
46562;DHT22;32289;42.688;23.330;2023-04-03T15:48:40;11.10;99.90
46562;DHT22;32289;42.688;23.330;2023-04-03T15:52:20;10.90;99.90
46562;DHT22;32289;42.688;23.330;2023-04-03T15:56:01;10.70;99.90
46562;DHT22;32289;42.688;23.330;2023-04-03T15:59:42;10.80;99.90
46562;DHT22;32289;42.688;23.330;2023-04-03T16:03:22;10.60;99.90
46562;DHT22;32289;42.688;23.330;2023-04-03T16:07:04;10.50;99.90
46562;DHT22;32289;42.688;23.330;2023-04-03T16:10:45;10.50;99.90
46562;DHT22;32289;42.688;23.330;2023-04-03T16:14:27;10.40;99.90
46562;DHT22;32289;42.688;23.330;2023-04-03T16:18:10;10.50;99.90
46562;DHT22;32289;42.688;23.330;2023-04-03T16:21:51;10.60;99.90
46562;DHT22;32289;42.688;23.330;2023-04-03T16:25:31;10.50;99.90
46562;DHT22;32289;42.688;23.330;2023-04-03T16:29:12;10.40;99.90
46562;DHT22;32289;42.688;23.330;2023-04-03T16:32:53;10.40;99.90
46562;DHT22;32289;42.688;23.330;2023-04-03T16:36:35;10.40;99.90
46562;DHT22;32289;42.688;23.330;2023-04-03T16:40:17;10.50;99.90
46562;DHT22;32289;42.688;23.330;2023-04-03T16:43:58;10.40;99.90
46562;DHT22;32289;42.688;23.330;2023-04-03T16:47:39;10.40;99.90
46562;DHT22;32289;42.688;23.330;2023-04-03T16:51:20;10.40;99.90
46562;DHT22;32289;42.688;23.330;2023-04-03T16:55:01;10.30;99.90
46562;DHT22;32289;42.688;23.330;2023-04-03T16:58:41;10.40;99.90
46562;DHT22;32289;42.688;23.330;2023-04-03T17:02:23;10.30;99.90
46562;DHT22;32289;42.688;23.330;2023-04-03T17:06:07;10.20;99.90
46562;DHT22;32289;42.688;23.330;2023-04-03T17:09:48;10.20;99.90
46562;DHT22;32289;42.688;23.330;2023-04-03T17:13:29;10.10;99.90
46562;DHT22;32289;42.688;23.330;2023-04-03T17:17:13;10.20;99.90
46562;DHT22;32289;42.688;23.330;2023-04-03T17:20:55;10.00;99.90
46562;DHT22;32289;42.688;23.330;2023-04-03T17:24:36;9.90;99.90
46562;DHT22;32289;42.688;23.330;2023-04-03T17:28:17;9.90;99.90
46562;DHT22;32289;42.688;23.330;2023-04-03T17:31:58;10.00;99.90
46562;DHT22;32289;42.688;23.330;2023-04-03T17:35:39;9.90;99.90
46562;DHT22;32289;42.688;23.330;2023-04-03T17:39:19;9.90;99.90
46562;DHT22;32289;42.688;23.330;2023-04-03T17:43:00;9.70;99.90
46562;DHT22;32289;42.688;23.330;2023-04-03T17:46:41;9.60;99.90
46562;DHT22;32289;42.688;23.330;2023-04-03T17:50:22;9.60;99.90
46562;DHT22;32289;42.688;23.330;2023-04-03T17:54:02;9.40;99.90
46562;DHT22;32289;42.688;23.330;2023-04-03T17:57:43;9.70;99.90
46562;DHT22;32289;42.688;23.330;2023-04-03T18:01:27;9.90;99.90
46562;DHT22;32289;42.688;23.330;2023-04-03T18:05:09;9.80;99.90
46562;DHT22;32289;42.688;23.330;2023-04-03T18:08:52;9.60;99.90
46562;DHT22;32289;42.688;23.330;2023-04-03T18:12:34;9.60;99.90
46562;DHT22;32289;42.688;23.330;2023-04-03T18:16:16;9.80;99.90
46562;DHT22;32289;42.688;23.330;2023-04-03T18:19:56;9.80;99.90
46562;DHT22;32289;42.688;23.330;2023-04-03T18:23:41;9.80;99.90
46562;DHT22;32289;42.688;23.330;2023-04-03T18:27:25;9.60;99.90
46562;DHT22;32289;42.688;23.330;2023-04-03T18:31:07;9.60;99.90
46562;DHT22;32289;42.688;23.330;2023-04-03T18:34:50;9.70;99.90
46562;DHT22;32289;42.688;23.330;2023-04-03T18:38:31;9.80;99.90
46562;DHT22;32289;42.688;23.330;2023-04-03T18:42:15;9.90;99.90
46562;DHT22;32289;42.688;23.330;2023-04-03T18:45:56;9.70;99.90
46562;DHT22;32289;42.688;23.330;2023-04-03T18:49:38;9.90;99.90
46562;DHT22;32289;42.688;23.330;2023-04-03T18:53:19;9.80;99.90
46562;DHT22;32289;42.688;23.330;2023-04-03T18:57:01;9.60;99.90
46562;DHT22;32289;42.688;23.330;2023-04-03T19:00:41;9.50;99.90
46562;DHT22;32289;42.688;23.330;2023-04-03T19:04:22;9.70;99.90
46562;DHT22;32289;42.688;23.330;2023-04-03T19:08:04;9.70;99.90
46562;DHT22;32289;42.688;23.330;2023-04-03T19:11:45;9.60;99.90
46562;DHT22;32289;42.688;23.330;2023-04-03T19:15:25;9.40;99.90
46562;DHT22;32289;42.688;23.330;2023-04-03T19:19:06;9.50;99.90
46562;DHT22;32289;42.688;23.330;2023-04-03T19:22:47;9.80;99.90
46562;DHT22;32289;42.688;23.330;2023-04-03T19:26:30;9.70;99.90
46562;DHT22;32289;42.688;23.330;2023-04-03T19:30:11;9.60;99.90
46562;DHT22;32289;42.688;23.330;2023-04-03T19:33:52;9.80;99.90
46562;DHT22;32289;42.688;23.330;2023-04-03T19:37:33;9.60;99.90
46562;DHT22;32289;42.688;23.330;2023-04-03T19:41:18;9.60;99.90
46562;DHT22;32289;42.688;23.330;2023-04-03T19:44:59;9.60;99.90
46562;DHT22;32289;42.688;23.330;2023-04-03T19:48:40;9.50;99.90
46562;DHT22;32289;42.688;23.330;2023-04-03T19:52:21;9.30;99.90
46562;DHT22;32289;42.688;23.330;2023-04-03T19:56:01;9.40;99.90
46562;DHT22;32289;42.688;23.330;2023-04-03T19:59:42;9.30;99.90
46562;DHT22;32289;42.688;23.330;2023-04-03T20:03:24;9.20;99.90
46562;DHT22;32289;42.688;23.330;2023-04-03T20:07:05;9.10;99.90
46562;DHT22;32289;42.688;23.330;2023-04-03T20:10:46;9.10;99.90
46562;DHT22;32289;42.688;23.330;2023-04-03T20:14:28;9.10;99.90
46562;DHT22;32289;42.688;23.330;2023-04-03T20:18:11;9.10;99.90
46562;DHT22;32289;42.688;23.330;2023-04-03T20:21:59;9.20;99.90
46562;DHT22;32289;42.688;23.330;2023-04-03T20:25:42;9.00;99.90
46562;DHT22;32289;42.688;23.330;2023-04-03T20:29:24;9.10;99.90
46562;DHT22;32289;42.688;23.330;2023-04-03T20:33:07;8.90;99.90
46562;DHT22;32289;42.688;23.330;2023-04-03T20:36:48;8.90;99.90
46562;DHT22;32289;42.688;23.330;2023-04-03T20:40:30;9.00;99.90
46562;DHT22;32289;42.688;23.330;2023-04-03T20:44:11;8.70;99.90
46562;DHT22;32289;42.688;23.330;2023-04-03T20:47:51;8.70;99.90
46562;DHT22;32289;42.688;23.330;2023-04-03T20:51:33;8.90;99.90
46562;DHT22;32289;42.688;23.330;2023-04-03T20:55:14;8.90;99.90
46562;DHT22;32289;42.688;23.330;2023-04-03T20:58:55;8.90;99.90
46562;DHT22;32289;42.688;23.330;2023-04-03T21:02:38;9.00;99.90
46562;DHT22;32289;42.688;23.330;2023-04-03T21:19:19;9.00;99.90
46562;DHT22;32289;42.688;23.330;2023-04-03T21:23:01;9.10;99.90
46562;DHT22;32289;42.688;23.330;2023-04-03T21:26:42;8.90;99.90
46562;DHT22;32289;42.688;23.330;2023-04-03T21:30:24;8.90;99.90
46562;DHT22;32289;42.688;23.330;2023-04-03T21:34:05;8.90;99.90
46562;DHT22;32289;42.688;23.330;2023-04-03T21:37:45;9.00;99.90
46562;DHT22;32289;42.688;23.330;2023-04-03T21:41:26;8.90;99.90
46562;DHT22;32289;42.688;23.330;2023-04-03T21:45:07;9.00;99.90
46562;DHT22;32289;42.688;23.330;2023-04-03T21:48:48;8.80;99.90
46562;DHT22;32289;42.688;23.330;2023-04-03T21:52:29;8.70;99.90
46562;DHT22;32289;42.688;23.330;2023-04-03T21:56:10;8.70;99.90
46562;DHT22;32289;42.688;23.330;2023-04-03T21:59:50;8.90;99.90
46562;DHT22;32289;42.688;23.330;2023-04-03T22:03:31;8.70;99.90
46562;DHT22;32289;42.688;23.330;2023-04-03T22:07:14;8.60;99.90
46562;DHT22;32289;42.688;23.330;2023-04-03T22:11:08;8.50;99.90
46562;DHT22;32289;42.688;23.330;2023-04-03T22:14:49;8.50;99.90
46562;DHT22;32289;42.688;23.330;2023-04-03T22:18:29;8.50;99.90
46562;DHT22;32289;42.688;23.330;2023-04-03T22:22:13;8.60;99.90
46562;DHT22;32289;42.688;23.330;2023-04-03T22:26:02;8.60;99.90
46562;DHT22;32289;42.688;23.330;2023-04-03T22:29:43;8.50;99.90
46562;DHT22;32289;42.688;23.330;2023-04-03T22:33:24;8.60;99.90
46562;DHT22;32289;42.688;23.330;2023-04-03T22:37:04;8.60;99.90
46562;DHT22;32289;42.688;23.330;2023-04-03T22:40:45;8.50;99.90
46562;DHT22;32289;42.688;23.330;2023-04-03T22:44:26;8.40;99.90
46562;DHT22;32289;42.688;23.330;2023-04-03T22:48:07;8.30;99.90
46562;DHT22;32289;42.688;23.330;2023-04-03T22:51:48;8.20;99.90
46562;DHT22;32289;42.688;23.330;2023-04-03T22:55:29;8.20;99.90
46562;DHT22;32289;42.688;23.330;2023-04-03T22:59:09;8.10;99.90
46562;DHT22;32289;42.688;23.330;2023-04-03T23:02:53;8.20;99.90
46562;DHT22;32289;42.688;23.330;2023-04-03T23:06:34;8.10;99.90
46562;DHT22;32289;42.688;23.330;2023-04-03T23:10:15;8.00;99.90
46562;DHT22;32289;42.688;23.330;2023-04-03T23:13:57;8.10;99.90
46562;DHT22;32289;42.688;23.330;2023-04-03T23:17:39;8.00;99.90
46562;DHT22;32289;42.688;23.330;2023-04-03T23:21:20;7.90;99.90
46562;DHT22;32289;42.688;23.330;2023-04-03T23:25:00;7.90;99.90
46562;DHT22;32289;42.688;23.330;2023-04-03T23:28:41;7.90;99.90
46562;DHT22;32289;42.688;23.330;2023-04-03T23:32:22;7.90;99.90
46562;DHT22;32289;42.688;23.330;2023-04-03T23:36:06;8.00;99.90
46562;DHT22;32289;42.688;23.330;2023-04-03T23:39:47;7.90;99.90
46562;DHT22;32289;42.688;23.330;2023-04-03T23:43:28;7.90;99.90
46562;DHT22;32289;42.688;23.330;2023-04-03T23:47:08;7.90;99.90
46562;DHT22;32289;42.688;23.330;2023-04-03T23:50:49;8.00;99.90
46562;DHT22;32289;42.688;23.330;2023-04-03T23:54:30;7.90;99.90
46562;DHT22;32289;42.688;23.330;2023-04-03T23:58:10;8.00;99.90
